createdAt,value
2023-02-18T00:01:01.930Z,28.98
2023-02-18T00:03:41.386Z,31.00
2023-02-18T00:06:40.350Z,34.08
2023-02-18T00:09:28.116Z,30.52
2023-02-18T00:12:03.174Z,35.58
2023-02-18T00:18:01.011Z,35.67
2023-02-18T00:20:50.317Z,37.08
2023-02-18T00:23:44.156Z,36.83
2023-02-18T00:26:46.460Z,34.22
2023-02-18T00:29:14.944Z,31.23
2023-02-18T00:32:03.103Z,35.13
2023-02-18T00:34:45.494Z,42.25
2023-02-18T00:37:59.970Z,38.10
2023-02-18T00:40:46.221Z,44.40
2023-02-18T00:43:37.352Z,35.85
2023-02-18T00:46:15.351Z,34.35
2023-02-18T00:48:56.892Z,36.72
2023-02-18T00:51:33.793Z,32.30
2023-02-18T00:54:31.911Z,33.35
2023-02-18T00:57:04.948Z,31.10
2023-02-18T00:59:54.998Z,33.10
2023-02-18T01:02:24.234Z,35.20
2023-02-18T01:04:54.894Z,33.78
2023-02-18T01:07:22.299Z,37.92
2023-02-18T01:09:49.995Z,40.53
2023-02-18T01:12:17.863Z,34.05
2023-02-18T01:14:47.737Z,34.22
2023-02-18T01:17:25.285Z,36.08
2023-02-18T01:20:07.377Z,35.85
2023-02-18T01:22:42.012Z,38.53
2023-02-18T01:25:13.824Z,29.15
2023-02-18T01:27:46.140Z,37.65
2023-02-18T01:30:19.975Z,37.33
2023-02-18T01:32:47.565Z,32.00
2023-02-18T01:35:24.362Z,42.22
2023-02-18T01:37:57.572Z,29.35
2023-02-18T01:40:32.082Z,36.50
2023-02-18T01:43:03.036Z,36.75
2023-02-18T01:45:39.825Z,47.95
2023-02-18T01:48:21.063Z,37.30
2023-02-18T01:50:55.059Z,41.20
2023-02-18T01:53:31.508Z,31.63
2023-02-18T01:56:06.846Z,31.10
2023-02-18T01:58:39.860Z,37.85
2023-02-18T02:01:26.871Z,37.80
2023-02-18T02:04:11.110Z,35.17
2023-02-18T02:06:54.124Z,37.70
2023-02-18T02:09:35.663Z,35.33
2023-02-18T02:12:37.456Z,34.58
2023-02-18T02:15:34.117Z,35.70
2023-02-18T02:18:29.303Z,36.10
2023-02-18T02:21:18.341Z,37.33
2023-02-18T02:24:16.760Z,38.70
2023-02-18T02:27:24.922Z,39.05
2023-02-18T02:31:00.791Z,45.35
2023-02-18T02:33:40.491Z,36.58
2023-02-18T02:36:52.612Z,37.47
2023-02-18T02:40:06.105Z,35.40
2023-02-18T02:43:06.402Z,40.78
2023-02-18T02:46:18.336Z,45.00
2023-02-18T02:49:05.065Z,37.55
2023-02-18T02:52:06.164Z,39.55
2023-02-18T02:54:46.468Z,43.70
2023-02-18T02:57:55.557Z,35.63
2023-02-18T03:04:32.115Z,39.78
2023-02-18T03:10:47.159Z,36.20
2023-02-18T03:14:00.241Z,40.83
2023-02-18T03:16:52.577Z,38.58
2023-02-18T03:19:38.188Z,38.88
2023-02-18T03:25:19.154Z,37.67
2023-02-18T03:28:19.070Z,44.72
2023-02-18T03:31:11.547Z,40.72
2023-02-18T03:34:14.774Z,35.75
2023-02-18T03:36:46.487Z,37.83
2023-02-18T03:39:46.091Z,41.90
2023-02-18T03:42:37.206Z,43.75
2023-02-18T03:45:06.072Z,44.63
2023-02-18T03:47:35.519Z,41.70
2023-02-18T03:50:13.789Z,46.45
2023-02-18T03:52:45.351Z,34.75
2023-02-18T03:55:13.920Z,39.17
2023-02-18T03:57:41.373Z,46.25
2023-02-18T04:00:13.152Z,39.80
2023-02-18T04:02:41.065Z,44.90
2023-02-18T04:05:09.122Z,49.45
2023-02-18T04:07:36.822Z,37.90
2023-02-18T04:10:07.479Z,44.78
2023-02-18T04:12:38.133Z,39.50
2023-02-18T04:15:08.869Z,41.90
2023-02-18T04:17:44.109Z,42.85
2023-02-18T04:20:12.331Z,35.10
2023-02-18T04:22:40.136Z,39.97
2023-02-18T04:25:10.242Z,40.88
2023-02-18T04:27:40.392Z,46.85
2023-02-18T04:30:20.466Z,40.50
2023-02-18T04:32:47.981Z,42.95
2023-02-18T04:35:30.621Z,38.72
2023-02-18T04:37:58.085Z,37.88
2023-02-18T04:40:35.412Z,38.00
2023-02-18T04:43:05.670Z,44.20
2023-02-18T04:45:33.084Z,38.67
2023-02-18T04:48:00.511Z,40.38
2023-02-18T04:50:28.220Z,43.47
2023-02-18T04:52:55.575Z,42.75
2023-02-18T04:55:23.897Z,41.75
2023-02-18T04:57:54.221Z,44.35
2023-02-18T05:00:48.255Z,38.95
2023-02-18T05:03:18.154Z,35.35
2023-02-18T05:06:04.350Z,40.00
2023-02-18T05:08:45.677Z,41.50
2023-02-18T05:11:17.083Z,41.53
2023-02-18T05:13:53.232Z,37.58
2023-02-18T05:16:26.408Z,38.95
2023-02-18T05:19:21.122Z,42.72
2023-02-18T05:21:58.071Z,42.55
2023-02-18T05:24:37.267Z,42.60
2023-02-18T05:30:15.545Z,37.70
2023-02-18T05:32:49.459Z,41.65
2023-02-18T05:35:25.665Z,43.53
2023-02-18T05:38:00.180Z,41.58
2023-02-18T05:40:34.574Z,41.00
2023-02-18T05:43:09.170Z,41.40
2023-02-18T05:45:50.004Z,41.58
2023-02-18T05:48:32.211Z,36.10
2023-02-18T05:56:58.551Z,40.90
2023-02-18T05:59:41.440Z,39.53
2023-02-18T06:02:19.856Z,37.22
2023-02-18T06:04:57.368Z,41.05
2023-02-18T06:07:30.967Z,41.45
2023-02-18T06:12:38.231Z,47.95
2023-02-18T06:18:01.517Z,38.97
2023-02-18T06:20:34.440Z,47.85
2023-02-18T06:23:01.925Z,45.75
2023-02-18T06:25:32.438Z,44.63
2023-02-18T06:28:22.421Z,44.67
2023-02-18T06:30:51.410Z,44.42
2023-02-18T06:33:24.750Z,39.63
2023-02-18T06:36:09.921Z,42.00
2023-02-18T06:38:49.189Z,43.38
2023-02-18T06:50:29.846Z,42.58
2023-02-18T06:53:00.656Z,40.92
2023-02-18T06:58:35.084Z,45.75
2023-02-18T07:01:25.430Z,45.22
2023-02-18T07:04:01.459Z,50.97
2023-02-18T07:06:36.568Z,54.10
2023-02-18T07:09:13.183Z,46.03
2023-02-18T07:11:53.154Z,49.03
2023-02-18T07:14:30.346Z,43.42
2023-02-18T07:20:19.040Z,43.75
2023-02-18T07:23:00.389Z,63.72
2023-02-18T07:25:36.246Z,50.17
2023-02-18T07:28:12.640Z,50.20
2023-02-18T07:30:53.471Z,46.85
2023-02-18T07:33:32.791Z,49.03
2023-02-18T07:36:02.364Z,43.97
2023-02-18T07:38:37.214Z,51.83
2023-02-18T07:41:33.490Z,48.20
2023-02-18T07:44:14.249Z,41.95
2023-02-18T07:46:54.743Z,44.90
2023-02-18T07:49:33.959Z,47.25
2023-02-18T07:52:11.846Z,46.42
2023-02-18T07:54:51.830Z,44.55
2023-02-18T07:57:22.552Z,48.58
2023-02-18T08:03:06.080Z,42.97
2023-02-18T08:05:40.056Z,51.03
2023-02-18T08:08:37.422Z,44.53
2023-02-18T08:11:18.949Z,43.42
2023-02-18T08:14:02.279Z,46.08
2023-02-18T08:16:33.154Z,45.25
2023-02-18T08:19:34.605Z,46.15
2023-02-18T08:22:05.045Z,52.85
2023-02-18T08:24:48.960Z,42.65
2023-02-18T08:27:16.315Z,50.10
2023-02-18T08:29:45.111Z,39.70
2023-02-18T08:32:17.945Z,40.95
2023-02-18T08:34:53.230Z,47.15
2023-02-18T08:37:27.974Z,46.95
2023-02-18T08:42:40.594Z,48.38
2023-02-18T08:45:11.413Z,44.15
2023-02-18T08:48:17.041Z,40.42
2023-02-18T08:50:35.664Z,47.97
2023-02-18T08:53:05.636Z,46.08
2023-02-18T08:55:40.545Z,47.13
2023-02-18T08:58:11.120Z,42.53
2023-02-18T09:00:44.248Z,38.35
2023-02-18T09:03:18.705Z,42.67
2023-02-18T09:05:54.890Z,44.30
2023-02-18T09:08:22.086Z,51.88
2023-02-18T09:11:05.016Z,51.20
2023-02-18T09:13:41.699Z,49.25
2023-02-18T09:16:21.011Z,42.08
2023-02-18T09:19:01.634Z,42.90
2023-02-18T09:21:35.270Z,42.47
2023-02-18T09:24:02.637Z,54.80
2023-02-18T09:29:10.793Z,46.13
2023-02-18T09:31:43.913Z,42.97
2023-02-18T09:34:21.503Z,53.03
2023-02-18T09:36:49.340Z,43.13
2023-02-18T09:39:18.263Z,47.05
2023-02-18T09:41:55.339Z,41.67
2023-02-18T09:44:35.581Z,42.55
2023-02-18T09:47:50.156Z,44.97
2023-02-18T09:50:42.946Z,47.85
2023-02-18T09:53:15.434Z,50.33
2023-02-18T09:55:46.767Z,52.30
2023-02-18T09:58:25.588Z,41.00
2023-02-18T10:01:05.223Z,45.70
2023-02-18T10:03:33.000Z,53.25
2023-02-18T10:06:34.615Z,49.65
2023-02-18T10:09:15.583Z,51.22
2023-02-18T10:12:12.670Z,51.05
2023-02-18T10:15:17.445Z,58.80
2023-02-18T10:18:13.484Z,54.17
2023-02-18T10:20:41.695Z,47.92
2023-02-18T10:23:23.169Z,50.05
2023-02-18T10:25:51.755Z,53.50
2023-02-18T10:28:29.965Z,55.20
2023-02-18T10:31:05.827Z,58.70
2023-02-18T10:33:51.062Z,50.08
2023-02-18T10:36:40.295Z,46.90
2023-02-18T10:39:34.911Z,48.40
2023-02-18T10:42:59.396Z,49.38
2023-02-18T10:46:12.116Z,51.10
2023-02-18T10:48:56.978Z,47.67
2023-02-18T10:51:33.869Z,60.05
2023-02-18T10:54:15.377Z,50.33
2023-02-18T11:00:07.517Z,57.70
2023-02-18T11:02:38.929Z,54.45
2023-02-18T11:05:35.295Z,55.67
2023-02-18T11:11:26.485Z,52.83
2023-02-18T11:14:04.628Z,47.03
2023-02-18T11:16:54.089Z,48.72
2023-02-18T11:19:39.478Z,49.05
2023-02-18T11:22:32.289Z,55.70
2023-02-18T11:25:36.645Z,42.50
2023-02-18T11:28:31.997Z,51.17
2023-02-18T11:31:20.229Z,44.15
2023-02-18T11:34:02.948Z,50.78
2023-02-18T11:36:36.309Z,43.25
2023-02-18T11:39:35.303Z,40.08
2023-02-18T11:42:11.786Z,42.60
2023-02-18T11:45:10.753Z,40.20
2023-02-18T11:47:43.732Z,36.35
2023-02-18T11:50:22.938Z,38.75
2023-02-18T11:53:12.292Z,34.85
2023-02-18T11:56:09.624Z,37.40
2023-02-18T11:58:46.107Z,46.40
2023-02-18T12:01:37.873Z,40.22
2023-02-18T12:04:30.293Z,35.83
2023-02-18T12:07:33.940Z,33.33
2023-02-18T12:10:30.806Z,39.45
2023-02-18T12:13:17.188Z,34.03
2023-02-18T12:16:27.669Z,41.67
2023-02-18T12:19:47.479Z,48.67
2023-02-18T12:22:39.127Z,56.00
2023-02-18T12:25:48.042Z,31.95
2023-02-18T12:29:36.161Z,27.67
2023-02-18T12:32:34.138Z,34.83
2023-02-18T12:35:32.206Z,34.30
2023-02-18T12:41:51.847Z,35.03
2023-02-18T12:45:20.644Z,34.53
2023-02-18T12:48:44.324Z,35.50
2023-02-18T12:51:17.108Z,35.75
2023-02-18T12:54:11.291Z,28.65
2023-02-18T12:56:59.546Z,26.00
2023-02-18T13:00:05.328Z,26.95
2023-02-18T13:03:47.274Z,26.15
2023-02-18T13:06:45.573Z,27.83
2023-02-18T13:09:59.014Z,24.60
2023-02-18T13:12:44.180Z,25.85
2023-02-18T13:16:14.445Z,25.17
2023-02-18T13:18:56.747Z,23.98
2023-02-18T13:21:30.626Z,28.42
2023-02-18T13:24:40.197Z,24.92
2023-02-18T13:27:56.191Z,24.65
2023-02-18T13:33:48.025Z,23.75
2023-02-18T13:36:53.817Z,20.88
2023-02-18T13:39:58.522Z,24.77
2023-02-18T13:42:39.373Z,22.08
2023-02-18T13:45:54.340Z,24.17
2023-02-18T13:48:48.156Z,21.75
2023-02-18T13:52:04.951Z,25.33
2023-02-18T13:55:01.076Z,19.10
2023-02-18T13:57:57.503Z,23.30
2023-02-18T14:00:47.542Z,26.48
2023-02-18T14:04:01.136Z,21.38
2023-02-18T14:06:38.714Z,21.60
2023-02-18T14:09:12.720Z,20.73
2023-02-18T14:12:20.000Z,20.80
2023-02-18T14:14:59.121Z,19.60
2023-02-18T14:18:10.867Z,20.52
2023-02-18T14:20:41.480Z,15.80
2023-02-18T14:23:40.320Z,22.48
2023-02-18T14:26:18.624Z,12.75
2023-02-18T14:29:26.254Z,12.95
2023-02-18T14:32:15.679Z,15.73
2023-02-18T14:34:59.266Z,11.57
2023-02-18T14:47:48.480Z,9.60
2023-02-18T14:50:34.843Z,8.73
2023-02-18T14:53:47.984Z,11.63
2023-02-18T14:56:38.632Z,11.15
2023-02-18T14:59:17.174Z,9.05
2023-02-18T15:02:08.544Z,10.07
2023-02-18T15:05:41.064Z,13.02
2023-02-18T15:08:41.117Z,13.00
2023-02-18T15:11:27.234Z,11.02
2023-02-18T15:14:28.157Z,17.23
2023-02-18T15:17:03.668Z,12.30
2023-02-18T15:23:29.393Z,5.93
2023-02-18T15:26:20.291Z,8.60
2023-02-18T15:32:22.082Z,7.07
2023-02-18T15:35:24.101Z,9.60
2023-02-18T15:38:32.492Z,9.57
2023-02-18T15:41:07.645Z,6.18
2023-02-18T15:44:15.675Z,8.70
2023-02-18T15:46:46.592Z,8.77
2023-02-18T15:49:36.331Z,11.80
2023-02-18T15:53:04.401Z,9.98
2023-02-18T15:55:41.286Z,6.70
2023-02-18T15:58:21.863Z,10.50
2023-02-18T16:01:04.517Z,4.45
2023-02-18T16:03:52.504Z,6.78
2023-02-18T16:06:49.166Z,8.75
2023-02-18T16:10:09.856Z,9.30
2023-02-18T16:12:55.210Z,7.78
2023-02-18T16:15:49.401Z,9.13
2023-02-18T16:18:32.614Z,10.35
2023-02-18T16:21:13.618Z,8.87
2023-02-18T16:24:03.717Z,9.75
2023-02-18T16:26:53.918Z,10.75
2023-02-18T16:30:20.194Z,8.75
2023-02-18T16:32:50.503Z,13.97
2023-02-18T16:35:32.795Z,11.52
2023-02-18T16:38:27.847Z,9.85
2023-02-18T16:41:35.284Z,9.63
2023-02-18T16:44:15.892Z,10.18
2023-02-18T16:46:49.445Z,17.05
2023-02-18T16:52:20.383Z,12.67
2023-02-18T16:54:57.759Z,13.55
2023-02-18T16:57:30.222Z,18.58
2023-02-18T17:00:15.574Z,13.13
2023-02-18T17:03:21.478Z,9.75
2023-02-18T17:05:58.016Z,13.68
2023-02-18T17:08:29.896Z,22.40
2023-02-18T17:11:29.366Z,18.00
2023-02-18T17:14:12.753Z,12.63
2023-02-18T17:20:01.163Z,13.00
2023-02-18T17:22:40.714Z,13.52
2023-02-18T17:25:41.090Z,17.38
2023-02-18T17:28:42.941Z,13.10
2023-02-18T17:31:35.629Z,11.75
2023-02-18T17:34:08.031Z,13.13
2023-02-18T17:40:21.633Z,16.67
2023-02-18T17:42:50.401Z,12.15
2023-02-18T17:45:30.224Z,9.98
2023-02-18T17:48:38.224Z,16.08
2023-02-18T17:51:11.717Z,11.10
2023-02-18T17:53:39.056Z,7.35
2023-02-18T17:56:19.291Z,12.40
2023-02-18T17:59:00.828Z,6.80
2023-02-18T18:01:31.929Z,12.07
2023-02-18T18:04:13.126Z,16.08
2023-02-18T18:06:40.471Z,11.52
2023-02-18T18:09:14.024Z,6.25
2023-02-18T18:14:24.067Z,8.30
2023-02-18T18:16:56.345Z,11.77
2023-02-18T18:19:34.118Z,7.80
2023-02-18T18:22:04.522Z,8.73
2023-02-18T18:24:38.250Z,18.20
2023-02-18T18:27:09.866Z,9.07
2023-02-18T18:29:46.175Z,13.60
2023-02-18T18:32:23.949Z,12.00
2023-02-18T18:34:58.121Z,12.27
2023-02-18T18:37:28.556Z,19.40
2023-02-18T18:39:55.779Z,15.73
2023-02-18T18:42:23.149Z,15.00
2023-02-18T18:44:50.482Z,18.42
2023-02-18T18:47:23.043Z,18.00
2023-02-18T18:49:59.521Z,14.65
2023-02-18T18:52:32.914Z,18.45
2023-02-18T18:55:07.469Z,12.40
2023-02-18T18:57:47.265Z,13.50
2023-02-18T19:00:20.185Z,13.32
2023-02-18T19:02:51.126Z,13.47
2023-02-18T19:05:41.311Z,13.40
2023-02-18T19:08:13.130Z,14.02
2023-02-18T19:10:50.807Z,16.88
2023-02-18T19:13:22.684Z,16.00
2023-02-18T19:16:01.997Z,15.63
2023-02-18T19:18:35.653Z,16.20
2023-02-18T19:21:16.949Z,12.63
2023-02-18T19:23:50.239Z,12.50
2023-02-18T19:29:22.456Z,16.33
2023-02-18T19:31:53.988Z,18.55
2023-02-18T19:37:23.477Z,15.60
2023-02-18T19:40:05.788Z,23.45
2023-02-18T19:42:53.391Z,24.30
2023-02-18T19:45:21.931Z,22.08
2023-02-18T19:48:07.969Z,21.10
2023-02-18T19:51:03.731Z,20.02
2023-02-18T19:53:38.802Z,26.33
2023-02-18T19:56:13.721Z,17.95
2023-02-18T19:58:57.771Z,18.85
2023-02-18T20:04:42.567Z,19.88
2023-02-18T20:07:23.054Z,19.75
2023-02-18T20:12:42.006Z,27.45
2023-02-18T20:15:20.676Z,22.48
2023-02-18T20:18:01.425Z,22.67
2023-02-18T20:20:39.941Z,23.67
2023-02-18T20:26:15.189Z,17.02
2023-02-18T20:28:43.837Z,20.45
2023-02-18T20:31:23.748Z,29.85
2023-02-18T20:33:56.439Z,24.65
2023-02-18T20:36:33.978Z,33.85
2023-02-18T20:39:15.796Z,24.85
2023-02-18T20:41:54.988Z,23.13
2023-02-18T20:44:36.325Z,33.17
2023-02-18T20:47:25.700Z,34.10
2023-02-18T20:52:53.418Z,24.35
2023-02-18T20:58:20.633Z,29.38
2023-02-18T21:01:05.808Z,26.02
2023-02-18T21:03:54.832Z,22.13
2023-02-18T21:06:30.990Z,25.73
2023-02-18T21:12:30.601Z,35.92
2023-02-18T21:15:55.638Z,27.77
2023-02-18T21:18:32.032Z,22.50
2023-02-18T21:21:11.791Z,40.03
2023-02-18T21:23:51.392Z,29.00
2023-02-18T21:32:55.166Z,30.83
2023-02-18T21:35:30.489Z,30.30
2023-02-18T21:38:05.648Z,32.65
2023-02-18T21:40:45.009Z,27.42
2023-02-18T21:43:24.927Z,34.53
2023-02-18T21:46:32.795Z,32.33
2023-02-18T21:49:28.527Z,42.10
2023-02-18T21:52:23.344Z,35.08
2023-02-18T21:55:15.276Z,36.83
2023-02-18T21:57:56.758Z,41.72
2023-02-18T22:03:25.920Z,33.60
2023-02-18T22:05:57.024Z,44.03
2023-02-18T22:08:35.256Z,36.90
2023-02-18T22:11:08.574Z,46.50
2023-02-18T22:13:41.961Z,35.85
2023-02-18T22:16:12.041Z,37.33
2023-02-18T22:18:59.899Z,40.25
2023-02-18T22:21:37.526Z,37.00
2023-02-18T22:24:11.311Z,36.28
2023-02-18T22:26:51.529Z,32.17
2023-02-18T22:29:30.703Z,38.75
2023-02-18T22:35:29.659Z,33.50
2023-02-18T22:38:10.849Z,40.65
2023-02-18T22:47:51.488Z,32.13
2023-02-18T22:53:06.662Z,40.95
2023-02-18T22:55:50.093Z,34.53
2023-02-18T22:58:26.403Z,29.48
2023-02-18T23:03:56.043Z,33.97
2023-02-18T23:06:33.868Z,30.48
2023-02-18T23:09:12.909Z,41.03
2023-02-18T23:11:43.172Z,28.60
2023-02-18T23:14:27.587Z,33.20
2023-02-18T23:17:15.420Z,32.42
2023-02-18T23:19:57.104Z,36.95
2023-02-18T23:22:52.625Z,38.97
2023-02-18T23:25:29.971Z,31.92
2023-02-18T23:28:30.052Z,37.78
2023-02-18T23:31:01.004Z,36.00
2023-02-18T23:37:02.902Z,50.22
2023-02-18T23:39:46.137Z,36.53
2023-02-18T23:42:18.094Z,35.42
2023-02-18T23:44:56.434Z,30.33
2023-02-18T23:47:24.101Z,23.38
2023-02-18T23:49:57.252Z,26.77
2023-02-18T23:52:36.164Z,24.17
2023-02-18T23:55:25.534Z,29.65
2023-02-18T23:57:55.165Z,36.08
